createdAt,value
2022-07-30T00:00:24.624Z,10.95
2022-07-30T00:02:53.172Z,12.27
2022-07-30T00:05:20.688Z,13.10
2022-07-30T00:07:48.211Z,11.85
2022-07-30T00:10:15.547Z,14.10
2022-07-30T00:12:42.823Z,15.55
2022-07-30T00:15:13.703Z,16.25
2022-07-30T00:17:40.930Z,14.13
2022-07-30T00:20:08.513Z,15.35
2022-07-30T00:22:38.283Z,13.48
2022-07-30T00:25:06.786Z,15.20
2022-07-30T00:27:35.184Z,13.70
2022-07-30T00:30:04.176Z,13.73
2022-07-30T00:32:31.607Z,16.05
2022-07-30T00:34:58.733Z,14.95
2022-07-30T00:37:25.926Z,13.38
2022-07-30T00:39:53.246Z,11.27
2022-07-30T00:42:25.633Z,13.10
2022-07-30T00:44:54.721Z,14.38
2022-07-30T00:47:21.817Z,14.98
2022-07-30T00:49:48.806Z,14.68
2022-07-30T00:52:15.829Z,16.55
2022-07-30T00:54:43.028Z,17.60
2022-07-30T00:57:10.165Z,13.63
2022-07-30T00:59:37.873Z,19.38
2022-07-30T01:02:05.481Z,20.45
2022-07-30T01:07:02.150Z,14.27
2022-07-30T01:09:30.208Z,16.00
2022-07-30T01:11:58.214Z,15.13
2022-07-30T01:14:25.490Z,20.35
2022-07-30T01:16:52.874Z,15.00
2022-07-30T01:19:45.577Z,17.13
2022-07-30T01:22:31.166Z,15.25
2022-07-30T01:25:05.655Z,15.50
2022-07-30T01:27:45.896Z,16.90
2022-07-30T01:30:15.584Z,16.92
2022-07-30T01:32:51.444Z,15.18
2022-07-30T01:35:24.382Z,16.80
2022-07-30T01:37:56.707Z,16.85
2022-07-30T01:40:29.414Z,15.93
2022-07-30T01:42:58.846Z,15.77
2022-07-30T01:45:28.860Z,14.00
2022-07-30T01:47:58.898Z,13.07
2022-07-30T01:50:28.282Z,18.10
2022-07-30T01:52:57.935Z,18.08
2022-07-30T01:55:30.489Z,18.10
2022-07-30T01:57:59.099Z,16.63
2022-07-30T02:00:28.505Z,13.88
2022-07-30T02:02:55.518Z,19.45
2022-07-30T02:05:23.537Z,16.08
2022-07-30T02:07:58.909Z,16.80
2022-07-30T02:10:33.778Z,19.13
2022-07-30T02:13:04.669Z,19.58
2022-07-30T02:15:38.704Z,22.10
2022-07-30T02:18:23.798Z,14.52
2022-07-30T02:21:00.485Z,19.00
2022-07-30T02:23:31.425Z,16.95
2022-07-30T02:26:00.708Z,16.80
2022-07-30T02:28:39.378Z,20.55
2022-07-30T02:31:16.945Z,17.77
2022-07-30T02:33:54.942Z,24.20
2022-07-30T02:36:24.052Z,14.35
2022-07-30T02:38:52.231Z,14.88
2022-07-30T02:41:25.086Z,20.73
2022-07-30T02:43:53.373Z,17.85
2022-07-30T02:46:25.855Z,18.55
2022-07-30T02:48:54.692Z,18.55
2022-07-30T02:51:28.567Z,16.50
2022-07-30T02:54:01.517Z,16.85
2022-07-30T02:56:31.909Z,16.42
2022-07-30T02:59:01.919Z,19.15
2022-07-30T03:01:38.484Z,19.43
2022-07-30T03:04:06.778Z,18.58
2022-07-30T03:06:35.620Z,16.88
2022-07-30T03:09:04.393Z,18.10
2022-07-30T03:11:34.016Z,18.92
2022-07-30T03:14:05.789Z,14.98
2022-07-30T03:16:38.669Z,18.65
2022-07-30T03:19:10.122Z,17.83
2022-07-30T03:21:44.769Z,18.20
2022-07-30T03:24:15.233Z,17.70
2022-07-30T03:26:44.046Z,15.57
2022-07-30T03:29:13.681Z,17.95
2022-07-30T03:31:43.501Z,18.55
2022-07-30T03:36:41.602Z,16.85
2022-07-30T03:39:09.593Z,18.70
2022-07-30T03:41:38.582Z,13.88
2022-07-30T03:44:07.232Z,14.88
2022-07-30T03:46:37.055Z,19.48
2022-07-30T03:49:05.965Z,16.52
2022-07-30T03:51:36.046Z,18.48
2022-07-30T03:54:05.581Z,20.27
2022-07-30T03:56:33.620Z,20.75
2022-07-30T03:59:01.852Z,16.73
2022-07-30T04:01:32.249Z,15.75
2022-07-30T04:04:10.110Z,19.45
2022-07-30T04:06:40.969Z,17.85
2022-07-30T04:09:12.795Z,16.20
2022-07-30T04:11:50.185Z,18.45
2022-07-30T04:14:17.593Z,19.13
2022-07-30T04:16:51.829Z,19.25
2022-07-30T04:19:28.345Z,16.48
2022-07-30T04:21:58.457Z,18.27
2022-07-30T04:24:31.632Z,16.88
2022-07-30T04:27:00.567Z,20.33
2022-07-30T04:29:28.527Z,20.42
2022-07-30T04:31:56.924Z,19.48
2022-07-30T04:34:24.113Z,18.33
2022-07-30T04:36:51.346Z,16.58
2022-07-30T04:39:18.496Z,20.02
2022-07-30T04:41:48.787Z,17.88
2022-07-30T04:44:18.900Z,18.17
2022-07-30T04:46:47.150Z,17.73
2022-07-30T04:49:21.625Z,21.20
2022-07-30T04:51:49.643Z,20.13
2022-07-30T04:54:24.742Z,18.95
2022-07-30T04:56:54.737Z,22.25
2022-07-30T04:59:24.880Z,20.45
2022-07-30T05:01:53.654Z,22.02
2022-07-30T05:04:22.478Z,16.75
2022-07-30T05:06:49.961Z,17.17
2022-07-30T05:09:17.746Z,19.13
2022-07-30T05:11:53.037Z,20.55
2022-07-30T05:14:21.367Z,23.08
2022-07-30T05:16:48.893Z,19.30
2022-07-30T05:19:17.109Z,20.55
2022-07-30T05:21:44.336Z,21.13
2022-07-30T05:24:12.035Z,18.90
2022-07-30T05:26:39.696Z,21.20
2022-07-30T05:29:08.255Z,21.52
2022-07-30T05:31:38.171Z,22.33
2022-07-30T05:34:05.743Z,21.48
2022-07-30T05:36:34.097Z,19.58
2022-07-30T05:39:01.759Z,18.05
2022-07-30T05:41:31.900Z,23.33
2022-07-30T05:44:01.907Z,19.10
2022-07-30T05:46:31.148Z,19.23
2022-07-30T05:49:00.510Z,22.30
2022-07-30T05:51:29.273Z,24.98
2022-07-30T05:53:57.514Z,24.05
2022-07-30T05:56:24.739Z,22.05
2022-07-30T05:58:51.884Z,23.90
2022-07-30T06:01:20.826Z,23.95
2022-07-30T06:03:53.639Z,24.20
2022-07-30T06:06:26.546Z,23.13
2022-07-30T06:08:53.598Z,23.55
2022-07-30T06:11:20.912Z,22.75
2022-07-30T06:13:48.256Z,23.63
2022-07-30T06:16:22.456Z,26.90
2022-07-30T06:18:49.613Z,27.40
2022-07-30T06:21:16.821Z,24.42
2022-07-30T06:23:44.192Z,26.08
2022-07-30T06:26:16.543Z,25.70
2022-07-30T06:28:43.703Z,27.58
2022-07-30T06:31:10.931Z,25.00
2022-07-30T06:33:38.216Z,26.63
2022-07-30T06:36:05.571Z,28.60
2022-07-30T06:38:33.232Z,29.73
2022-07-30T06:41:02.637Z,32.03
2022-07-30T06:43:31.845Z,32.45
2022-07-30T06:45:59.318Z,25.15
2022-07-30T06:48:26.792Z,28.73
2022-07-30T06:50:54.018Z,31.08
2022-07-30T06:53:21.207Z,28.27
2022-07-30T06:55:50.432Z,30.70
2022-07-30T06:58:18.177Z,32.88
2022-07-30T07:00:53.076Z,29.55
2022-07-30T07:03:20.405Z,30.80
2022-07-30T07:05:52.925Z,30.40
2022-07-30T07:08:20.238Z,29.35
2022-07-30T07:10:52.474Z,30.77
2022-07-30T07:13:20.692Z,32.65
2022-07-30T07:15:53.738Z,26.23
2022-07-30T07:18:20.992Z,30.90
2022-07-30T07:20:54.625Z,30.00
2022-07-30T07:23:21.869Z,29.75
2022-07-30T07:25:48.990Z,29.98
2022-07-30T07:28:16.288Z,28.63
2022-07-30T07:30:44.377Z,26.40
2022-07-30T07:33:15.606Z,26.85
2022-07-30T07:38:18.317Z,32.33
2022-07-30T07:40:47.065Z,27.55
2022-07-30T07:43:21.124Z,31.58
2022-07-30T07:45:48.513Z,27.63
2022-07-30T07:48:18.696Z,29.63
2022-07-30T07:50:47.372Z,30.65
2022-07-30T07:53:14.760Z,26.15
2022-07-30T07:55:42.212Z,28.98
2022-07-30T07:58:13.484Z,31.38
2022-07-30T08:00:44.965Z,26.88
2022-07-30T08:03:12.118Z,26.60
2022-07-30T08:06:01.052Z,26.23
2022-07-30T08:08:26.605Z,28.20
2022-07-30T08:11:04.422Z,24.65
2022-07-30T08:13:49.177Z,24.33
2022-07-30T08:16:20.333Z,58.10
2022-07-30T08:18:47.613Z,26.08
2022-07-30T08:21:21.176Z,23.08
2022-07-30T08:23:48.356Z,23.67
2022-07-30T08:26:17.666Z,27.27
2022-07-30T08:28:45.708Z,25.38
2022-07-30T08:31:13.082Z,33.00
2022-07-30T08:33:40.229Z,27.40
2022-07-30T08:36:09.778Z,20.77
2022-07-30T08:38:43.137Z,24.98
2022-07-30T08:41:12.873Z,23.23
2022-07-30T08:43:40.540Z,21.95
2022-07-30T08:46:16.040Z,20.60
2022-07-30T08:51:10.783Z,22.45
2022-07-30T08:53:38.318Z,18.38
2022-07-30T08:56:07.489Z,21.42
2022-07-30T08:58:41.755Z,20.35
2022-07-30T09:01:09.571Z,23.63
2022-07-30T09:03:44.089Z,22.08
2022-07-30T09:06:12.283Z,24.02
2022-07-30T09:08:39.556Z,20.08
2022-07-30T09:11:06.627Z,27.25
2022-07-30T09:13:37.615Z,25.08
2022-07-30T09:16:24.522Z,22.15
2022-07-30T09:18:53.597Z,20.20
2022-07-30T09:21:24.021Z,22.05
2022-07-30T09:24:03.128Z,23.63
2022-07-30T09:26:32.836Z,20.00
2022-07-30T09:29:17.306Z,20.45
2022-07-30T09:32:04.169Z,21.67
2022-07-30T09:34:39.860Z,24.30
2022-07-30T09:37:10.397Z,20.33
2022-07-30T09:39:42.022Z,18.10
2022-07-30T09:42:20.058Z,20.52
2022-07-30T09:44:48.396Z,27.05
2022-07-30T09:47:38.820Z,24.02
2022-07-30T09:50:11.309Z,18.60
2022-07-30T09:52:49.095Z,23.20
2022-07-30T09:55:30.795Z,23.40
2022-07-30T09:58:00.272Z,26.65
2022-07-30T10:00:30.804Z,23.88
2022-07-30T10:03:22.023Z,22.00
2022-07-30T10:06:01.303Z,23.60
2022-07-30T10:11:10.590Z,15.82
2022-07-30T10:13:48.135Z,17.38
2022-07-30T10:16:16.433Z,18.88
2022-07-30T10:18:43.594Z,17.58
2022-07-30T10:21:12.498Z,17.20
2022-07-30T10:26:20.845Z,18.70
2022-07-30T10:28:53.411Z,16.02
2022-07-30T10:31:48.639Z,17.38
2022-07-30T10:34:23.965Z,19.02
2022-07-30T10:36:58.408Z,18.10
2022-07-30T10:39:33.035Z,15.25
2022-07-30T10:42:17.144Z,13.27
2022-07-30T10:45:02.923Z,14.43
2022-07-30T10:47:44.813Z,15.98
2022-07-30T10:50:22.190Z,18.60
2022-07-30T10:52:58.120Z,14.13
2022-07-30T10:55:37.344Z,15.05
2022-07-30T10:58:14.245Z,16.17
2022-07-30T11:03:20.084Z,14.27
2022-07-30T11:06:15.729Z,12.18
2022-07-30T11:08:45.576Z,12.88
2022-07-30T11:12:00.118Z,15.43
2022-07-30T11:14:08.595Z,16.80
2022-07-30T11:16:37.129Z,12.10
2022-07-30T11:19:55.676Z,14.63
2022-07-30T11:22:31.716Z,15.65
2022-07-30T11:25:00.528Z,15.85
2022-07-30T11:27:36.286Z,15.77
2022-07-30T11:30:29.614Z,14.13
2022-07-30T11:33:04.405Z,17.17
2022-07-30T11:35:35.243Z,14.82
2022-07-30T11:38:19.603Z,13.43
2022-07-30T11:40:54.835Z,12.90
2022-07-30T11:43:36.172Z,13.93
2022-07-30T11:46:29.044Z,12.15
2022-07-30T11:48:59.521Z,15.18
2022-07-30T11:54:04.827Z,14.90
2022-07-30T11:56:36.883Z,16.52
2022-07-30T11:59:11.846Z,14.70
2022-07-30T12:01:39.053Z,13.35
2022-07-30T12:04:08.829Z,10.27
2022-07-30T12:06:47.014Z,11.88
2022-07-30T12:09:23.532Z,11.50
2022-07-30T12:11:56.100Z,9.23
2022-07-30T12:14:23.327Z,11.13
2022-07-30T12:17:00.577Z,14.07
2022-07-30T12:19:27.994Z,12.02
2022-07-30T12:21:59.912Z,11.07
2022-07-30T12:24:27.112Z,13.98
2022-07-30T12:27:06.896Z,9.80
2022-07-30T12:29:35.536Z,10.63
2022-07-30T12:32:03.089Z,10.63
2022-07-30T12:34:34.605Z,10.10
2022-07-30T12:37:10.034Z,9.77
2022-07-30T12:39:37.723Z,12.18
2022-07-30T12:42:06.468Z,11.63
2022-07-30T12:44:39.254Z,16.52
2022-07-30T12:47:20.160Z,10.15
2022-07-30T12:49:49.879Z,10.90
2022-07-30T12:52:28.187Z,11.57
2022-07-30T12:55:04.109Z,6.90
2022-07-30T12:57:57.468Z,8.55
2022-07-30T13:00:52.653Z,14.18
2022-07-30T13:03:29.306Z,11.63
2022-07-30T13:05:57.150Z,11.55
2022-07-30T13:08:52.538Z,9.57
2022-07-30T13:11:38.456Z,10.70
2022-07-30T13:14:06.601Z,7.50
2022-07-30T13:16:35.782Z,9.32
2022-07-30T13:19:04.144Z,8.50
2022-07-30T13:21:31.356Z,8.63
2022-07-30T13:24:03.301Z,10.05
2022-07-30T13:26:30.494Z,8.80
2022-07-30T13:29:02.090Z,5.97
2022-07-30T13:31:42.251Z,7.68
2022-07-30T13:34:12.043Z,10.00
2022-07-30T13:36:44.722Z,8.07
2022-07-30T13:39:12.451Z,11.73
2022-07-30T13:41:49.506Z,10.15
2022-07-30T13:44:26.126Z,8.35
2022-07-30T13:46:53.380Z,9.52
2022-07-30T13:49:25.303Z,8.82
2022-07-30T13:51:57.159Z,9.82
2022-07-30T13:54:25.658Z,5.57
2022-07-30T13:56:53.354Z,8.68
2022-07-30T13:59:20.492Z,9.85
2022-07-30T14:01:47.609Z,5.55
2022-07-30T14:04:14.846Z,8.60
2022-07-30T14:06:42.058Z,6.90
2022-07-30T14:09:09.298Z,6.75
2022-07-30T14:11:36.359Z,6.72
2022-07-30T14:14:03.631Z,7.65
2022-07-30T14:16:46.197Z,4.75
2022-07-30T14:19:24.254Z,5.90
2022-07-30T14:21:53.630Z,6.97
2022-07-30T14:24:22.872Z,5.78
2022-07-30T14:26:55.828Z,5.90
2022-07-30T14:29:26.001Z,7.90
2022-07-30T14:31:53.654Z,9.02
2022-07-30T14:34:20.976Z,6.63
2022-07-30T14:36:48.205Z,5.18
2022-07-30T14:39:15.449Z,2.97
2022-07-30T14:41:43.121Z,6.05
2022-07-30T14:44:12.257Z,5.45
2022-07-30T14:46:52.026Z,8.60
2022-07-30T14:49:29.466Z,6.97
2022-07-30T14:51:56.993Z,5.55
2022-07-30T14:54:24.465Z,10.30
2022-07-30T14:56:59.713Z,6.20
2022-07-30T14:59:28.278Z,5.13
2022-07-30T15:01:56.931Z,8.52
2022-07-30T15:04:24.098Z,7.60
2022-07-30T15:06:55.721Z,8.52
2022-07-30T15:09:22.873Z,5.22
2022-07-30T15:12:08.515Z,6.25
2022-07-30T15:14:38.360Z,4.97
2022-07-30T15:17:07.719Z,9.00
2022-07-30T15:19:34.972Z,7.80
2022-07-30T15:22:07.150Z,7.60
2022-07-30T15:24:34.659Z,5.18
2022-07-30T15:27:07.071Z,9.32
2022-07-30T15:29:34.314Z,6.53
2022-07-30T15:32:07.046Z,5.93
2022-07-30T15:34:34.872Z,7.10
2022-07-30T15:37:09.950Z,5.97
2022-07-30T15:39:37.221Z,6.70
2022-07-30T15:42:14.297Z,7.55
2022-07-30T15:44:48.396Z,7.63
2022-07-30T15:47:34.556Z,5.82
2022-07-30T15:50:11.139Z,7.38
2022-07-30T15:52:38.614Z,4.93
2022-07-30T15:55:06.986Z,9.27
2022-07-30T15:57:34.372Z,6.30
2022-07-30T16:00:07.513Z,5.60
2022-07-30T16:02:37.237Z,8.07
2022-07-30T16:05:04.711Z,8.35
2022-07-30T16:07:32.077Z,4.70
2022-07-30T16:09:59.250Z,7.07
2022-07-30T16:12:26.594Z,8.48
2022-07-30T16:15:02.688Z,6.55
2022-07-30T16:17:30.846Z,4.18
2022-07-30T16:20:16.420Z,4.95
2022-07-30T16:22:47.458Z,5.45
2022-07-30T16:25:14.772Z,8.32
2022-07-30T16:27:42.310Z,6.85
2022-07-30T16:30:13.957Z,6.40
2022-07-30T16:32:41.162Z,6.28
2022-07-30T16:35:14.453Z,4.35
2022-07-30T16:38:02.745Z,8.48
2022-07-30T16:40:31.651Z,7.35
2022-07-30T16:43:19.930Z,4.18
2022-07-30T16:45:52.225Z,5.10
2022-07-30T16:48:19.446Z,3.83
2022-07-30T16:50:56.449Z,6.38
2022-07-30T16:53:23.830Z,6.82
2022-07-30T16:55:51.025Z,8.27
2022-07-30T16:58:18.367Z,6.32
2022-07-30T17:00:53.983Z,12.75
2022-07-30T17:03:21.205Z,6.35
2022-07-30T17:05:48.425Z,4.30
2022-07-30T17:08:15.552Z,6.28
2022-07-30T17:10:46.011Z,6.47
2022-07-30T17:13:15.291Z,7.55
2022-07-30T17:16:00.603Z,4.93
2022-07-30T17:18:27.838Z,7.50
2022-07-30T17:20:58.265Z,6.80
2022-07-30T17:23:25.467Z,7.18
2022-07-30T17:25:52.597Z,5.68
2022-07-30T17:28:26.909Z,9.43
2022-07-30T17:31:12.577Z,7.40
2022-07-30T17:33:46.446Z,6.25
2022-07-30T17:36:22.134Z,11.40
2022-07-30T17:38:50.711Z,4.68
2022-07-30T17:41:17.890Z,5.93
2022-07-30T17:43:45.050Z,3.97
2022-07-30T17:46:20.386Z,10.23
2022-07-30T17:48:57.522Z,6.85
2022-07-30T17:51:42.910Z,6.22
2022-07-30T17:54:10.304Z,6.85
2022-07-30T17:56:56.013Z,4.22
2022-07-30T17:59:28.280Z,6.50
2022-07-30T18:02:14.097Z,6.50
2022-07-30T18:04:41.290Z,8.18
2022-07-30T18:07:08.498Z,5.60
2022-07-30T18:09:39.937Z,8.00
2022-07-30T18:12:08.203Z,9.10
2022-07-30T18:14:38.475Z,7.35
2022-07-30T18:17:24.266Z,5.95
2022-07-30T18:19:51.445Z,8.57
2022-07-30T18:22:29.133Z,5.82
2022-07-30T18:25:00.029Z,9.02
2022-07-30T18:27:37.421Z,3.72
2022-07-30T18:30:05.017Z,6.18
2022-07-30T18:32:32.206Z,7.63
2022-07-30T18:34:59.380Z,7.78
2022-07-30T18:37:44.950Z,11.10
2022-07-30T18:40:24.087Z,5.20
2022-07-30T18:43:09.601Z,10.20
2022-07-30T18:45:37.320Z,4.35
2022-07-30T18:48:04.998Z,6.07
2022-07-30T18:50:32.821Z,6.97
2022-07-30T18:53:00.145Z,5.00
2022-07-30T18:55:34.246Z,6.63
2022-07-30T18:58:01.552Z,4.00
2022-07-30T19:00:35.266Z,7.47
2022-07-30T19:03:03.812Z,5.43
2022-07-30T19:05:31.193Z,5.40
2022-07-30T19:07:59.140Z,3.97
2022-07-30T19:10:27.346Z,7.38
2022-07-30T19:13:13.010Z,6.20
2022-07-30T19:15:48.593Z,4.18
2022-07-30T19:18:16.137Z,5.25
2022-07-30T19:20:44.042Z,6.88
2022-07-30T19:23:20.457Z,6.07
2022-07-30T19:25:47.826Z,5.57
2022-07-30T19:28:21.750Z,5.82
2022-07-30T19:30:52.046Z,11.32
2022-07-30T19:33:19.329Z,4.43
2022-07-30T19:35:55.114Z,5.78
2022-07-30T19:38:24.066Z,5.63
2022-07-30T19:40:52.067Z,10.57
2022-07-30T19:43:26.635Z,8.68
2022-07-30T19:45:58.526Z,6.95
2022-07-30T19:48:29.485Z,8.73
2022-07-30T19:51:00.501Z,9.00
2022-07-30T19:53:31.235Z,8.30
2022-07-30T19:56:04.374Z,10.13
2022-07-30T19:58:37.693Z,5.50
2022-07-30T20:01:08.330Z,6.20
2022-07-30T20:03:37.089Z,10.98
2022-07-30T20:06:14.498Z,7.32
2022-07-30T20:09:00.718Z,7.93
2022-07-30T20:11:43.604Z,10.70
2022-07-30T20:14:10.827Z,7.43
2022-07-30T20:16:38.193Z,10.32
2022-07-30T20:19:05.498Z,15.45
2022-07-30T20:21:56.644Z,22.63
2022-07-30T20:24:21.116Z,14.95
2022-07-30T20:26:48.312Z,16.45
2022-07-30T20:29:19.108Z,14.73
2022-07-30T20:31:46.916Z,14.05
2022-07-30T20:34:20.579Z,18.98
2022-07-30T20:36:56.364Z,11.55
2022-07-30T20:39:25.347Z,12.90
2022-07-30T20:42:07.523Z,12.27
2022-07-30T20:44:49.541Z,12.30
2022-07-30T20:47:38.227Z,11.57
2022-07-30T20:50:11.257Z,13.80
2022-07-30T20:52:46.572Z,11.00
2022-07-30T20:55:16.624Z,13.30
2022-07-30T20:58:01.921Z,12.68
2022-07-30T21:00:36.607Z,12.82
2022-07-30T21:03:13.617Z,11.98
2022-07-30T21:05:52.392Z,8.50
2022-07-30T21:08:20.500Z,12.52
2022-07-30T21:10:47.686Z,11.65
2022-07-30T21:13:15.222Z,11.35
2022-07-30T21:15:45.306Z,11.60
2022-07-30T21:18:28.602Z,12.35
2022-07-30T21:20:57.027Z,11.60
2022-07-30T21:23:25.007Z,12.05
2022-07-30T21:26:02.979Z,12.70
2022-07-30T21:28:36.287Z,13.73
2022-07-30T21:31:08.745Z,10.23
2022-07-30T21:33:37.212Z,9.70
2022-07-30T21:36:10.269Z,8.43
2022-07-30T21:38:42.381Z,10.57
2022-07-30T21:41:13.816Z,10.73
2022-07-30T21:43:45.898Z,12.13
2022-07-30T21:46:26.881Z,7.32
2022-07-30T21:48:58.373Z,10.05
2022-07-30T21:51:26.576Z,9.23
2022-07-30T21:54:07.288Z,11.88
2022-07-30T21:56:34.592Z,11.95
2022-07-30T21:59:16.538Z,14.10
2022-07-30T22:01:49.818Z,11.77
2022-07-30T22:04:17.264Z,10.80
2022-07-30T22:06:44.779Z,11.15
2022-07-30T22:09:18.948Z,12.82
2022-07-30T22:12:09.874Z,10.43
2022-07-30T22:14:54.086Z,11.75
2022-07-30T22:17:23.797Z,9.30
2022-07-30T22:20:11.351Z,8.93
2022-07-30T22:22:39.923Z,12.23
2022-07-30T22:25:09.778Z,9.73
2022-07-30T22:27:40.360Z,9.75
2022-07-30T22:30:33.608Z,7.43
2022-07-30T22:33:16.364Z,8.82
2022-07-30T22:35:46.891Z,11.75
2022-07-30T22:38:34.893Z,9.07
2022-07-30T22:41:02.125Z,10.95
2022-07-30T22:43:40.997Z,8.73
2022-07-30T22:46:14.879Z,14.00
2022-07-30T22:48:59.413Z,11.00
2022-07-30T22:52:03.777Z,10.32
2022-07-30T22:54:21.999Z,9.43
2022-07-30T22:56:50.352Z,9.32
2022-07-30T22:59:17.460Z,10.65
2022-07-30T23:02:27.881Z,11.02
2022-07-30T23:04:56.386Z,9.68
2022-07-30T23:07:23.689Z,12.93
2022-07-30T23:10:17.323Z,12.07
2022-07-30T23:13:04.104Z,8.98
2022-07-30T23:15:31.505Z,12.13
2022-07-30T23:17:58.625Z,9.57
2022-07-30T23:20:27.441Z,8.45
2022-07-30T23:22:54.953Z,7.82
2022-07-30T23:25:24.851Z,11.75
2022-07-30T23:27:52.027Z,13.35
2022-07-30T23:30:30.040Z,12.48
2022-07-30T23:33:19.665Z,9.18
2022-07-30T23:35:46.744Z,10.63
2022-07-30T23:38:15.197Z,9.65
2022-07-30T23:40:42.309Z,10.38
2022-07-30T23:43:09.392Z,8.85
2022-07-30T23:45:46.361Z,11.27
2022-07-30T23:48:15.189Z,8.05
2022-07-30T23:50:48.602Z,7.18
2022-07-30T23:53:15.909Z,11.60
2022-07-30T23:55:48.894Z,13.40
